Airfield :
LOGIN :

Register | Disclaimer

   EN    FR    IT 

 










Legend :    VFR   Marginal VFR   IFR   Intensive IFR   Very Intensive IFR
Visi :
Ceiling :
>= 8 km
>= 3000ft
5 to 8 km
1000 to 3000 ft
1500m to 5 km
500 to 1000 ft
800 to 1500m
200 to 500 ft
< 800m
< 200 ft
Symbols :   Thunderstorms  Fog  Heavy snow  Heavy precipitations  Wind > 20 kt
SIGMETs :     Misc.  Thunderstorms  Icing  Turbulence  Mountain Waves  Volcanic Ashes






- Airport Elevation : 587 ft
- IATA code : XCR


LFOK - Chalons Vatry

CURRENT METAR :
  • 270900Z AUTO 21017KT 9999 OVC013 09/07 Q1010 BECMG SCT015 BKN030

EXPIRED METARs :
  • 270830Z AUTO 21016KT 9999 OVC013 09/07 Q1009 BECMG SCT015 BKN030
  • 270800Z AUTO 21016KT 9999 OVC012 09/07 Q1009 TEMPO BKN007
  • 270730Z AUTO 22011KT 9999 BKN010 OVC015 08/07 Q1009 NOSIG
  • 270700Z AUTO 21011KT 9999 OVC011 08/07 Q1009 TEMPO BKN007
  • 270630Z AUTO 22011KT 9999 OVC010 08/07 Q1009 NOSIG

TAF TAF LFOK
Valid from the 27 at 06:00 until the 28 at 06:00 UTC


270500Z 2706/2806 22013KT 9999 SCT015 BKN030
TEMPO 2706/2710 BKN007
BECMG 2711/2714 21017G27KT
TEMPO 2716/2803 3000 RA BKN005 OVC013



MET'MAP, your aeronautical weather chart ! - Copyright ORBIFLY December 2007 - Disclaimer

ORBIFLY MET'MAP TEAM :

Programming & Development : Alexandra Zaïnal
Concept & original design : Baudouin d'Aumeries
Assistance for programming : Marc-Olivier Méhu
Technical & hardware support : Manuel Goepfert

Contact : metmap@orbifly.com




SOURCES & CREDITS :

   NOAA